sensor_id;sensor_type;location;lat;lon;timestamp;P1;durP1;ratioP1;P2;durP2;ratioP2
77612;SDS011;66777;52.282;5.960;2023-08-01T00:00:51;786.70;;;746.35;;
77612;SDS011;66777;52.282;5.960;2023-08-01T00:03:16;792.22;;;752.05;;
77612;SDS011;66777;52.282;5.960;2023-08-01T00:05:42;788.30;;;747.78;;
77612;SDS011;66777;52.282;5.960;2023-08-01T00:08:12;784.30;;;744.72;;
77612;SDS011;66777;52.282;5.960;2023-08-01T00:10:43;787.83;;;747.95;;
77612;SDS011;66777;52.282;5.960;2023-08-01T00:13:11;784.67;;;745.10;;
77612;SDS011;66777;52.282;5.960;2023-08-01T00:15:37;786.97;;;747.25;;
77612;SDS011;66777;52.282;5.960;2023-08-01T00:18:02;783.78;;;744.35;;
77612;SDS011;66777;52.282;5.960;2023-08-01T00:20:28;782.45;;;743.35;;
77612;SDS011;66777;52.282;5.960;2023-08-01T00:22:54;785.95;;;746.22;;
77612;SDS011;66777;52.282;5.960;2023-08-01T00:25:20;783.58;;;743.67;;
77612;SDS011;66777;52.282;5.960;2023-08-01T00:27:45;787.45;;;747.72;;
77612;SDS011;66777;52.282;5.960;2023-08-01T00:30:13;783.25;;;744.00;;
77612;SDS011;66777;52.282;5.960;2023-08-01T00:32:39;783.72;;;744.05;;
77612;SDS011;66777;52.282;5.960;2023-08-01T00:35:04;780.33;;;740.88;;
77612;SDS011;66777;52.282;5.960;2023-08-01T00:37:30;783.17;;;743.95;;
77612;SDS011;66777;52.282;5.960;2023-08-01T00:39:56;790.40;;;750.70;;
77612;SDS011;66777;52.282;5.960;2023-08-01T00:42:22;781.05;;;741.88;;
77612;SDS011;66777;52.282;5.960;2023-08-01T00:44:47;779.70;;;740.75;;
77612;SDS011;66777;52.282;5.960;2023-08-01T00:47:14;788.88;;;749.80;;
77612;SDS011;66777;52.282;5.960;2023-08-01T00:49:40;783.42;;;743.97;;
77612;SDS011;66777;52.282;5.960;2023-08-01T00:52:06;784.38;;;745.22;;
77612;SDS011;66777;52.282;5.960;2023-08-01T00:54:32;784.22;;;744.67;;
77612;SDS011;66777;52.282;5.960;2023-08-01T00:57:02;781.17;;;742.28;;
77612;SDS011;66777;52.282;5.960;2023-08-01T01:01:56;784.47;;;745.75;;
77612;SDS011;66777;52.282;5.960;2023-08-01T01:04:24;783.53;;;744.92;;
77612;SDS011;66777;52.282;5.960;2023-08-01T01:06:56;781.25;;;742.55;;
77612;SDS011;66777;52.282;5.960;2023-08-01T01:09:27;781.38;;;742.50;;
77612;SDS011;66777;52.282;5.960;2023-08-01T01:11:54;782.72;;;743.83;;
77612;SDS011;66777;52.282;5.960;2023-08-01T01:14:20;782.47;;;743.60;;
77612;SDS011;66777;52.282;5.960;2023-08-01T01:16:45;781.42;;;742.25;;
77612;SDS011;66777;52.282;5.960;2023-08-01T01:19:11;782.35;;;743.65;;
77612;SDS011;66777;52.282;5.960;2023-08-01T01:21:39;782.00;;;743.33;;
77612;SDS011;66777;52.282;5.960;2023-08-01T01:24:07;783.03;;;744.38;;
77612;SDS011;66777;52.282;5.960;2023-08-01T01:26:34;780.17;;;741.30;;
77612;SDS011;66777;52.282;5.960;2023-08-01T01:29:02;779.72;;;741.35;;
77612;SDS011;66777;52.282;5.960;2023-08-01T01:31:29;782.28;;;743.70;;
77612;SDS011;66777;52.282;5.960;2023-08-01T01:33:56;785.88;;;747.20;;
77612;SDS011;66777;52.282;5.960;2023-08-01T01:36:23;778.70;;;740.30;;
77612;SDS011;66777;52.282;5.960;2023-08-01T01:38:49;786.72;;;747.45;;
77612;SDS011;66777;52.282;5.960;2023-08-01T01:41:14;775.83;;;737.38;;
77612;SDS011;66777;52.282;5.960;2023-08-01T01:43:40;778.47;;;739.80;;
77612;SDS011;66777;52.282;5.960;2023-08-01T01:46:06;783.03;;;744.20;;
77612;SDS011;66777;52.282;5.960;2023-08-01T01:48:32;781.90;;;742.97;;
77612;SDS011;66777;52.282;5.960;2023-08-01T01:50:57;776.88;;;738.50;;
77612;SDS011;66777;52.282;5.960;2023-08-01T01:53:23;782.17;;;742.97;;
77612;SDS011;66777;52.282;5.960;2023-08-01T01:55:48;775.88;;;737.05;;
77612;SDS011;66777;52.282;5.960;2023-08-01T01:58:14;783.47;;;744.70;;
77612;SDS011;66777;52.282;5.960;2023-08-01T02:00:40;783.83;;;744.55;;
77612;SDS011;66777;52.282;5.960;2023-08-01T02:03:06;784.85;;;745.13;;
77612;SDS011;66777;52.282;5.960;2023-08-01T02:05:35;786.25;;;746.83;;
77612;SDS011;66777;52.282;5.960;2023-08-01T02:08:01;779.55;;;740.70;;
77612;SDS011;66777;52.282;5.960;2023-08-01T02:10:26;783.17;;;744.30;;
77612;SDS011;66777;52.282;5.960;2023-08-01T02:12:52;779.13;;;739.80;;
77612;SDS011;66777;52.282;5.960;2023-08-01T02:15:18;783.58;;;744.60;;
77612;SDS011;66777;52.282;5.960;2023-08-01T02:17:43;786.20;;;747.10;;
77612;SDS011;66777;52.282;5.960;2023-08-01T02:20:09;780.20;;;741.20;;
77612;SDS011;66777;52.282;5.960;2023-08-01T02:22:35;778.63;;;739.72;;
77612;SDS011;66777;52.282;5.960;2023-08-01T02:25:00;778.00;;;738.70;;
77612;SDS011;66777;52.282;5.960;2023-08-01T02:27:26;782.53;;;743.55;;
77612;SDS011;66777;52.282;5.960;2023-08-01T02:29:51;781.25;;;742.58;;
77612;SDS011;66777;52.282;5.960;2023-08-01T02:32:17;781.08;;;742.38;;
77612;SDS011;66777;52.282;5.960;2023-08-01T02:34:42;776.30;;;737.47;;
77612;SDS011;66777;52.282;5.960;2023-08-01T02:37:08;782.92;;;744.00;;
77612;SDS011;66777;52.282;5.960;2023-08-01T02:39:34;782.65;;;743.63;;
77612;SDS011;66777;52.282;5.960;2023-08-01T02:42:00;779.40;;;740.63;;
77612;SDS011;66777;52.282;5.960;2023-08-01T02:44:26;782.47;;;742.88;;
77612;SDS011;66777;52.282;5.960;2023-08-01T02:46:52;779.45;;;740.83;;
77612;SDS011;66777;52.282;5.960;2023-08-01T02:49:18;780.92;;;741.75;;
77612;SDS011;66777;52.282;5.960;2023-08-01T02:51:43;778.58;;;739.40;;
77612;SDS011;66777;52.282;5.960;2023-08-01T02:54:09;783.97;;;744.63;;
77612;SDS011;66777;52.282;5.960;2023-08-01T02:56:34;778.88;;;739.97;;
77612;SDS011;66777;52.282;5.960;2023-08-01T02:59:02;783.88;;;744.70;;
77612;SDS011;66777;52.282;5.960;2023-08-01T03:01:29;777.88;;;738.85;;
77612;SDS011;66777;52.282;5.960;2023-08-01T03:03:55;779.50;;;740.80;;
77612;SDS011;66777;52.282;5.960;2023-08-01T03:06:20;777.58;;;739.33;;
77612;SDS011;66777;52.282;5.960;2023-08-01T03:08:46;777.90;;;739.47;;
77612;SDS011;66777;52.282;5.960;2023-08-01T03:11:12;780.50;;;741.50;;
77612;SDS011;66777;52.282;5.960;2023-08-01T03:13:38;781.28;;;742.40;;
77612;SDS011;66777;52.282;5.960;2023-08-01T03:16:03;781.40;;;742.75;;
77612;SDS011;66777;52.282;5.960;2023-08-01T03:18:29;780.95;;;742.13;;
77612;SDS011;66777;52.282;5.960;2023-08-01T03:20:55;774.70;;;736.47;;
77612;SDS011;66777;52.282;5.960;2023-08-01T03:23:20;782.63;;;743.75;;
77612;SDS011;66777;52.282;5.960;2023-08-01T03:25:46;778.17;;;739.47;;
77612;SDS011;66777;52.282;5.960;2023-08-01T03:28:12;779.60;;;740.65;;
77612;SDS011;66777;52.282;5.960;2023-08-01T03:30:39;776.35;;;737.40;;
77612;SDS011;66777;52.282;5.960;2023-08-01T03:33:04;777.17;;;738.63;;
77612;SDS011;66777;52.282;5.960;2023-08-01T03:35:30;778.75;;;739.95;;
77612;SDS011;66777;52.282;5.960;2023-08-01T03:37:55;781.40;;;742.78;;
77612;SDS011;66777;52.282;5.960;2023-08-01T03:40:21;787.40;;;748.03;;
77612;SDS011;66777;52.282;5.960;2023-08-01T03:42:46;779.40;;;740.40;;
77612;SDS011;66777;52.282;5.960;2023-08-01T03:45:12;789.55;;;750.25;;
77612;SDS011;66777;52.282;5.960;2023-08-01T03:47:38;776.92;;;737.90;;
77612;SDS011;66777;52.282;5.960;2023-08-01T03:50:03;780.40;;;741.42;;
77612;SDS011;66777;52.282;5.960;2023-08-01T03:52:29;780.47;;;741.35;;
77612;SDS011;66777;52.282;5.960;2023-08-01T03:54:55;783.35;;;744.22;;
77612;SDS011;66777;52.282;5.960;2023-08-01T03:57:21;776.45;;;737.22;;
77612;SDS011;66777;52.282;5.960;2023-08-01T03:59:46;778.28;;;739.80;;
77612;SDS011;66777;52.282;5.960;2023-08-01T04:02:12;777.58;;;738.78;;
77612;SDS011;66777;52.282;5.960;2023-08-01T04:04:38;775.15;;;736.53;;
77612;SDS011;66777;52.282;5.960;2023-08-01T04:07:03;779.67;;;741.25;;
77612;SDS011;66777;52.282;5.960;2023-08-01T04:09:29;777.63;;;739.42;;
77612;SDS011;66777;52.282;5.960;2023-08-01T04:11:55;778.38;;;739.55;;
77612;SDS011;66777;52.282;5.960;2023-08-01T04:14:20;777.63;;;739.28;;
77612;SDS011;66777;52.282;5.960;2023-08-01T04:16:46;776.00;;;737.78;;
77612;SDS011;66777;52.282;5.960;2023-08-01T04:19:12;778.40;;;739.25;;
77612;SDS011;66777;52.282;5.960;2023-08-01T04:21:38;784.33;;;745.72;;
77612;SDS011;66777;52.282;5.960;2023-08-01T04:24:03;780.63;;;742.45;;
77612;SDS011;66777;52.282;5.960;2023-08-01T04:26:29;779.90;;;741.35;;
77612;SDS011;66777;52.282;5.960;2023-08-01T04:28:55;776.85;;;738.00;;
77612;SDS011;66777;52.282;5.960;2023-08-01T04:31:20;779.13;;;740.63;;
77612;SDS011;66777;52.282;5.960;2023-08-01T04:33:46;785.17;;;746.10;;
77612;SDS011;66777;52.282;5.960;2023-08-01T04:36:11;781.78;;;743.22;;
77612;SDS011;66777;52.282;5.960;2023-08-01T04:38:37;784.42;;;745.85;;
77612;SDS011;66777;52.282;5.960;2023-08-01T04:41:03;779.58;;;740.67;;
77612;SDS011;66777;52.282;5.960;2023-08-01T04:43:28;782.60;;;744.03;;
77612;SDS011;66777;52.282;5.960;2023-08-01T04:45:54;777.65;;;739.30;;
77612;SDS011;66777;52.282;5.960;2023-08-01T04:48:19;772.50;;;734.53;;
77612;SDS011;66777;52.282;5.960;2023-08-01T04:50:45;779.00;;;740.45;;
77612;SDS011;66777;52.282;5.960;2023-08-01T04:53:11;779.25;;;740.70;;
77612;SDS011;66777;52.282;5.960;2023-08-01T04:55:37;782.53;;;743.80;;
77612;SDS011;66777;52.282;5.960;2023-08-01T04:58:03;776.42;;;738.17;;
77612;SDS011;66777;52.282;5.960;2023-08-01T05:00:28;782.17;;;743.55;;
77612;SDS011;66777;52.282;5.960;2023-08-01T05:02:54;781.17;;;741.53;;
77612;SDS011;66777;52.282;5.960;2023-08-01T05:05:19;783.78;;;745.53;;
77612;SDS011;66777;52.282;5.960;2023-08-01T05:07:45;778.65;;;740.08;;
77612;SDS011;66777;52.282;5.960;2023-08-01T05:10:10;782.92;;;743.85;;
77612;SDS011;66777;52.282;5.960;2023-08-01T05:12:36;790.30;;;750.40;;
77612;SDS011;66777;52.282;5.960;2023-08-01T05:15:02;778.33;;;739.22;;
77612;SDS011;66777;52.282;5.960;2023-08-01T05:17:28;781.47;;;741.72;;
77612;SDS011;66777;52.282;5.960;2023-08-01T05:19:54;784.22;;;744.78;;
77612;SDS011;66777;52.282;5.960;2023-08-01T05:22:20;782.15;;;742.53;;
77612;SDS011;66777;52.282;5.960;2023-08-01T05:24:46;782.08;;;742.78;;
77612;SDS011;66777;52.282;5.960;2023-08-01T05:27:11;781.67;;;742.08;;
77612;SDS011;66777;52.282;5.960;2023-08-01T05:29:37;783.55;;;744.45;;
77612;SDS011;66777;52.282;5.960;2023-08-01T05:32:02;782.30;;;743.10;;
77612;SDS011;66777;52.282;5.960;2023-08-01T05:34:28;786.47;;;746.80;;
77612;SDS011;66777;52.282;5.960;2023-08-01T05:36:54;781.40;;;742.17;;
77612;SDS011;66777;52.282;5.960;2023-08-01T05:39:20;784.38;;;744.95;;
77612;SDS011;66777;52.282;5.960;2023-08-01T05:41:46;781.13;;;740.55;;
77612;SDS011;66777;52.282;5.960;2023-08-01T05:44:12;785.80;;;746.33;;
77612;SDS011;66777;52.282;5.960;2023-08-01T05:46:37;782.15;;;742.83;;
77612;SDS011;66777;52.282;5.960;2023-08-01T05:49:03;783.03;;;743.92;;
77612;SDS011;66777;52.282;5.960;2023-08-01T05:51:29;785.83;;;745.95;;
77612;SDS011;66777;52.282;5.960;2023-08-01T05:53:55;783.03;;;743.38;;
77612;SDS011;66777;52.282;5.960;2023-08-01T05:56:20;785.42;;;746.05;;
77612;SDS011;66777;52.282;5.960;2023-08-01T05:58:46;779.08;;;739.35;;
77612;SDS011;66777;52.282;5.960;2023-08-01T06:01:12;781.88;;;742.30;;
77612;SDS011;66777;52.282;5.960;2023-08-01T06:03:38;779.08;;;739.75;;
77612;SDS011;66777;52.282;5.960;2023-08-01T06:06:04;791.30;;;751.60;;
77612;SDS011;66777;52.282;5.960;2023-08-01T06:08:29;785.50;;;745.72;;
77612;SDS011;66777;52.282;5.960;2023-08-01T06:10:55;781.92;;;742.40;;
77612;SDS011;66777;52.282;5.960;2023-08-01T06:13:21;783.90;;;744.33;;
77612;SDS011;66777;52.282;5.960;2023-08-01T06:15:46;779.65;;;739.83;;
77612;SDS011;66777;52.282;5.960;2023-08-01T06:18:12;786.10;;;746.53;;
77612;SDS011;66777;52.282;5.960;2023-08-01T06:20:38;783.10;;;743.50;;
77612;SDS011;66777;52.282;5.960;2023-08-01T06:23:04;781.33;;;741.13;;
77612;SDS011;66777;52.282;5.960;2023-08-01T06:25:30;783.42;;;742.95;;
77612;SDS011;66777;52.282;5.960;2023-08-01T06:27:55;781.33;;;741.67;;
77612;SDS011;66777;52.282;5.960;2023-08-01T06:30:21;783.13;;;743.17;;
77612;SDS011;66777;52.282;5.960;2023-08-01T06:32:47;781.72;;;742.03;;
77612;SDS011;66777;52.282;5.960;2023-08-01T06:35:13;782.47;;;742.13;;
77612;SDS011;66777;52.282;5.960;2023-08-01T06:37:39;781.58;;;741.70;;
77612;SDS011;66777;52.282;5.960;2023-08-01T06:40:06;784.13;;;744.05;;
77612;SDS011;66777;52.282;5.960;2023-08-01T06:42:33;780.72;;;740.65;;
77612;SDS011;66777;52.282;5.960;2023-08-01T06:44:58;780.72;;;740.05;;
77612;SDS011;66777;52.282;5.960;2023-08-01T06:47:24;785.83;;;745.55;;
77612;SDS011;66777;52.282;5.960;2023-08-01T06:49:50;785.42;;;745.30;;
77612;SDS011;66777;52.282;5.960;2023-08-01T06:52:16;783.08;;;742.83;;
77612;SDS011;66777;52.282;5.960;2023-08-01T06:54:42;781.22;;;741.08;;
77612;SDS011;66777;52.282;5.960;2023-08-01T06:57:07;782.20;;;741.97;;
77612;SDS011;66777;52.282;5.960;2023-08-01T06:59:33;786.08;;;745.72;;
77612;SDS011;66777;52.282;5.960;2023-08-01T07:01:59;783.10;;;742.92;;
77612;SDS011;66777;52.282;5.960;2023-08-01T07:04:25;787.38;;;747.08;;
77612;SDS011;66777;52.282;5.960;2023-08-01T07:06:50;785.08;;;744.42;;
77612;SDS011;66777;52.282;5.960;2023-08-01T07:09:16;783.83;;;743.42;;
77612;SDS011;66777;52.282;5.960;2023-08-01T07:11:42;789.90;;;749.70;;
77612;SDS011;66777;52.282;5.960;2023-08-01T07:14:07;783.22;;;743.15;;
77612;SDS011;66777;52.282;5.960;2023-08-01T07:16:33;781.33;;;741.45;;
77612;SDS011;66777;52.282;5.960;2023-08-01T07:19:02;792.88;;;752.03;;
77612;SDS011;66777;52.282;5.960;2023-08-01T07:21:28;787.55;;;746.95;;
77612;SDS011;66777;52.282;5.960;2023-08-01T07:23:54;787.95;;;747.45;;
77612;SDS011;66777;52.282;5.960;2023-08-01T07:26:19;785.65;;;745.05;;
77612;SDS011;66777;52.282;5.960;2023-08-01T07:28:45;787.83;;;747.60;;
77612;SDS011;66777;52.282;5.960;2023-08-01T07:31:11;788.55;;;748.40;;
77612;SDS011;66777;52.282;5.960;2023-08-01T07:33:36;784.20;;;744.30;;
77612;SDS011;66777;52.282;5.960;2023-08-01T07:36:02;786.55;;;746.58;;
77612;SDS011;66777;52.282;5.960;2023-08-01T07:38:28;791.15;;;750.33;;
77612;SDS011;66777;52.282;5.960;2023-08-01T07:40:56;784.53;;;743.85;;
77612;SDS011;66777;52.282;5.960;2023-08-01T07:45:55;787.53;;;747.08;;
77612;SDS011;66777;52.282;5.960;2023-08-01T07:48:24;794.72;;;754.22;;
77612;SDS011;66777;52.282;5.960;2023-08-01T07:50:50;790.15;;;748.58;;
77612;SDS011;66777;52.282;5.960;2023-08-01T07:53:16;789.95;;;748.50;;
77612;SDS011;66777;52.282;5.960;2023-08-01T07:55:42;792.40;;;750.63;;
77612;SDS011;66777;52.282;5.960;2023-08-01T07:58:08;791.63;;;750.40;;
77612;SDS011;66777;52.282;5.960;2023-08-01T08:00:37;791.67;;;749.97;;
77612;SDS011;66777;52.282;5.960;2023-08-01T08:03:04;787.75;;;746.85;;
77612;SDS011;66777;52.282;5.960;2023-08-01T08:05:32;796.83;;;755.10;;
77612;SDS011;66777;52.282;5.960;2023-08-01T08:07:59;792.67;;;751.60;;
77612;SDS011;66777;52.282;5.960;2023-08-01T08:10:25;791.33;;;750.15;;
77612;SDS011;66777;52.282;5.960;2023-08-01T08:12:51;792.05;;;750.30;;
77612;SDS011;66777;52.282;5.960;2023-08-01T08:15:17;793.25;;;751.67;;
77612;SDS011;66777;52.282;5.960;2023-08-01T08:17:44;791.55;;;749.70;;
77612;SDS011;66777;52.282;5.960;2023-08-01T08:20:10;791.25;;;749.78;;
77612;SDS011;66777;52.282;5.960;2023-08-01T08:22:36;792.08;;;750.22;;
77612;SDS011;66777;52.282;5.960;2023-08-01T08:25:01;791.63;;;750.13;;
77612;SDS011;66777;52.282;5.960;2023-08-01T08:27:27;793.40;;;752.25;;
77612;SDS011;66777;52.282;5.960;2023-08-01T08:29:53;794.40;;;752.63;;
77612;SDS011;66777;52.282;5.960;2023-08-01T08:32:19;791.83;;;750.17;;
77612;SDS011;66777;52.282;5.960;2023-08-01T08:34:44;795.72;;;753.47;;
77612;SDS011;66777;52.282;5.960;2023-08-01T08:37:10;794.60;;;752.50;;
77612;SDS011;66777;52.282;5.960;2023-08-01T08:39:36;796.22;;;753.63;;
77612;SDS011;66777;52.282;5.960;2023-08-01T08:42:02;792.78;;;750.53;;
77612;SDS011;66777;52.282;5.960;2023-08-01T08:44:29;798.70;;;755.97;;
77612;SDS011;66777;52.282;5.960;2023-08-01T08:46:59;685.47;;;662.55;;
77612;SDS011;66777;52.282;5.960;2023-08-01T08:49:31;659.10;;;638.58;;
77612;SDS011;66777;52.282;5.960;2023-08-01T08:51:58;652.38;;;632.45;;
77612;SDS011;66777;52.282;5.960;2023-08-01T08:54:24;654.03;;;634.38;;
77612;SDS011;66777;52.282;5.960;2023-08-01T08:56:51;648.45;;;629.00;;
77612;SDS011;66777;52.282;5.960;2023-08-01T08:59:17;655.75;;;636.08;;
77612;SDS011;66777;52.282;5.960;2023-08-01T09:01:44;632.40;;;614.25;;
77612;SDS011;66777;52.282;5.960;2023-08-01T09:04:11;641.72;;;622.90;;
77612;SDS011;66777;52.282;5.960;2023-08-01T09:06:46;626.67;;;608.78;;
77612;SDS011;66777;52.282;5.960;2023-08-01T09:09:14;630.13;;;611.85;;
77612;SDS011;66777;52.282;5.960;2023-08-01T09:11:41;641.58;;;622.67;;
77612;SDS011;66777;52.282;5.960;2023-08-01T09:14:09;629.95;;;611.80;;
77612;SDS011;66777;52.282;5.960;2023-08-01T09:16:35;644.15;;;624.75;;
77612;SDS011;66777;52.282;5.960;2023-08-01T09:19:01;650.90;;;631.17;;
77612;SDS011;66777;52.282;5.960;2023-08-01T09:21:27;645.65;;;626.17;;
77612;SDS011;66777;52.282;5.960;2023-08-01T09:23:58;643.50;;;624.00;;
77612;SDS011;66777;52.282;5.960;2023-08-01T09:26:33;644.90;;;626.03;;
77612;SDS011;66777;52.282;5.960;2023-08-01T09:28:59;629.58;;;611.75;;
77612;SDS011;66777;52.282;5.960;2023-08-01T09:31:28;631.72;;;613.83;;
77612;SDS011;66777;52.282;5.960;2023-08-01T09:33:55;628.42;;;610.53;;
77612;SDS011;66777;52.282;5.960;2023-08-01T09:36:21;631.05;;;613.00;;
77612;SDS011;66777;52.282;5.960;2023-08-01T09:38:47;628.50;;;610.58;;
77612;SDS011;66777;52.282;5.960;2023-08-01T09:41:19;611.83;;;594.63;;
77612;SDS011;66777;52.282;5.960;2023-08-01T09:43:49;619.40;;;602.22;;
77612;SDS011;66777;52.282;5.960;2023-08-01T09:46:16;621.80;;;604.10;;
77612;SDS011;66777;52.282;5.960;2023-08-01T09:48:42;626.42;;;609.13;;
77612;SDS011;66777;52.282;5.960;2023-08-01T09:53:48;615.35;;;598.13;;
77612;SDS011;66777;52.282;5.960;2023-08-01T09:56:25;613.42;;;596.40;;
77612;SDS011;66777;52.282;5.960;2023-08-01T09:58:52;613.65;;;596.05;;
77612;SDS011;66777;52.282;5.960;2023-08-01T10:01:20;605.08;;;588.67;;
77612;SDS011;66777;52.282;5.960;2023-08-01T10:03:48;608.08;;;591.38;;
77612;SDS011;66777;52.282;5.960;2023-08-01T10:06:24;614.78;;;597.83;;
77612;SDS011;66777;52.282;5.960;2023-08-01T10:08:54;603.55;;;587.22;;
77612;SDS011;66777;52.282;5.960;2023-08-01T10:11:20;610.95;;;594.22;;
77612;SDS011;66777;52.282;5.960;2023-08-01T10:13:48;607.22;;;590.83;;
77612;SDS011;66777;52.282;5.960;2023-08-01T10:16:16;596.97;;;580.40;;
77612;SDS011;66777;52.282;5.960;2023-08-01T10:18:42;603.28;;;587.00;;
77612;SDS011;66777;52.282;5.960;2023-08-01T10:21:10;601.95;;;585.83;;
77612;SDS011;66777;52.282;5.960;2023-08-01T10:23:38;608.60;;;592.10;;
77612;SDS011;66777;52.282;5.960;2023-08-01T10:26:06;592.33;;;576.35;;
77612;SDS011;66777;52.282;5.960;2023-08-01T10:28:34;596.13;;;579.90;;
77612;SDS011;66777;52.282;5.960;2023-08-01T10:31:07;601.70;;;585.17;;
77612;SDS011;66777;52.282;5.960;2023-08-01T10:33:40;610.30;;;593.63;;
77612;SDS011;66777;52.282;5.960;2023-08-01T10:36:13;602.53;;;586.05;;
77612;SDS011;66777;52.282;5.960;2023-08-01T10:38:46;616.47;;;599.45;;
77612;SDS011;66777;52.282;5.960;2023-08-01T10:44:10;602.13;;;585.72;;
77612;SDS011;66777;52.282;5.960;2023-08-01T10:46:56;608.90;;;592.35;;
77612;SDS011;66777;52.282;5.960;2023-08-01T10:49:37;613.17;;;596.13;;
77612;SDS011;66777;52.282;5.960;2023-08-01T10:52:15;606.47;;;589.95;;
77612;SDS011;66777;52.282;5.960;2023-08-01T10:54:43;608.30;;;591.78;;
77612;SDS011;66777;52.282;5.960;2023-08-01T10:57:15;613.30;;;596.38;;
77612;SDS011;66777;52.282;5.960;2023-08-01T10:59:42;606.53;;;590.05;;
77612;SDS011;66777;52.282;5.960;2023-08-01T11:02:09;602.58;;;586.28;;
77612;SDS011;66777;52.282;5.960;2023-08-01T11:04:35;611.97;;;595.17;;
77612;SDS011;66777;52.282;5.960;2023-08-01T11:07:01;612.40;;;595.78;;
77612;SDS011;66777;52.282;5.960;2023-08-01T11:09:30;608.25;;;591.60;;
77612;SDS011;66777;52.282;5.960;2023-08-01T11:11:56;616.60;;;599.92;;
77612;SDS011;66777;52.282;5.960;2023-08-01T11:14:25;612.30;;;595.70;;
77612;SDS011;66777;52.282;5.960;2023-08-01T11:16:54;614.30;;;597.42;;
77612;SDS011;66777;52.282;5.960;2023-08-01T11:19:22;614.55;;;597.90;;
77612;SDS011;66777;52.282;5.960;2023-08-01T11:21:49;604.75;;;588.53;;
77612;SDS011;66777;52.282;5.960;2023-08-01T11:24:17;602.70;;;586.40;;
77612;SDS011;66777;52.282;5.960;2023-08-01T11:26:45;599.08;;;582.85;;
77612;SDS011;66777;52.282;5.960;2023-08-01T11:29:13;603.70;;;587.38;;
77612;SDS011;66777;52.282;5.960;2023-08-01T11:31:40;610.65;;;594.05;;
77612;SDS011;66777;52.282;5.960;2023-08-01T11:34:06;614.90;;;597.90;;
77612;SDS011;66777;52.282;5.960;2023-08-01T11:36:34;617.15;;;600.50;;
77612;SDS011;66777;52.282;5.960;2023-08-01T11:39:01;618.67;;;601.92;;
77612;SDS011;66777;52.282;5.960;2023-08-01T11:41:27;614.92;;;597.95;;
77612;SDS011;66777;52.282;5.960;2023-08-01T11:43:53;616.33;;;599.58;;
77612;SDS011;66777;52.282;5.960;2023-08-01T11:46:20;613.72;;;597.05;;
77612;SDS011;66777;52.282;5.960;2023-08-01T11:48:47;618.42;;;601.65;;
77612;SDS011;66777;52.282;5.960;2023-08-01T11:51:16;611.55;;;594.97;;
77612;SDS011;66777;52.282;5.960;2023-08-01T11:53:42;608.33;;;591.70;;
77612;SDS011;66777;52.282;5.960;2023-08-01T11:56:19;616.47;;;599.75;;
77612;SDS011;66777;52.282;5.960;2023-08-01T11:58:49;610.80;;;594.13;;
77612;SDS011;66777;52.282;5.960;2023-08-01T12:01:14;600.85;;;584.85;;
77612;SDS011;66777;52.282;5.960;2023-08-01T12:03:50;614.15;;;597.38;;
77612;SDS011;66777;52.282;5.960;2023-08-01T12:06:17;624.88;;;607.63;;
77612;SDS011;66777;52.282;5.960;2023-08-01T12:08:45;613.80;;;597.00;;
77612;SDS011;66777;52.282;5.960;2023-08-01T12:11:28;611.95;;;595.47;;
77612;SDS011;66777;52.282;5.960;2023-08-01T12:16:27;614.97;;;598.05;;
77612;SDS011;66777;52.282;5.960;2023-08-01T12:18:53;612.25;;;595.72;;
77612;SDS011;66777;52.282;5.960;2023-08-01T12:21:18;614.22;;;597.38;;
77612;SDS011;66777;52.282;5.960;2023-08-01T12:23:44;621.70;;;604.58;;
77612;SDS011;66777;52.282;5.960;2023-08-01T12:26:09;620.92;;;603.92;;
77612;SDS011;66777;52.282;5.960;2023-08-01T12:28:35;627.88;;;610.60;;
77612;SDS011;66777;52.282;5.960;2023-08-01T12:31:01;620.97;;;604.03;;
77612;SDS011;66777;52.282;5.960;2023-08-01T12:33:27;610.05;;;593.45;;
77612;SDS011;66777;52.282;5.960;2023-08-01T12:35:52;623.75;;;606.65;;
77612;SDS011;66777;52.282;5.960;2023-08-01T12:38:18;620.13;;;603.17;;
77612;SDS011;66777;52.282;5.960;2023-08-01T12:40:43;616.67;;;599.78;;
77612;SDS011;66777;52.282;5.960;2023-08-01T12:43:09;613.17;;;596.40;;
77612;SDS011;66777;52.282;5.960;2023-08-01T12:45:34;613.42;;;596.88;;
77612;SDS011;66777;52.282;5.960;2023-08-01T12:48:00;609.15;;;592.38;;
77612;SDS011;66777;52.282;5.960;2023-08-01T12:50:26;623.33;;;606.33;;
77612;SDS011;66777;52.282;5.960;2023-08-01T12:52:52;620.45;;;603.50;;
77612;SDS011;66777;52.282;5.960;2023-08-01T12:55:18;609.97;;;593.40;;
77612;SDS011;66777;52.282;5.960;2023-08-01T12:57:43;612.17;;;595.47;;
77612;SDS011;66777;52.282;5.960;2023-08-01T13:00:09;615.38;;;598.47;;
77612;SDS011;66777;52.282;5.960;2023-08-01T13:02:38;616.17;;;599.50;;
77612;SDS011;66777;52.282;5.960;2023-08-01T13:05:04;615.47;;;598.60;;
77612;SDS011;66777;52.282;5.960;2023-08-01T13:07:30;616.08;;;599.35;;
77612;SDS011;66777;52.282;5.960;2023-08-01T13:09:57;604.38;;;587.78;;
77612;SDS011;66777;52.282;5.960;2023-08-01T13:12:24;628.78;;;611.20;;
77612;SDS011;66777;52.282;5.960;2023-08-01T13:14:51;626.13;;;608.85;;
77612;SDS011;66777;52.282;5.960;2023-08-01T13:17:17;628.20;;;610.63;;
77612;SDS011;66777;52.282;5.960;2023-08-01T13:19:43;628.67;;;610.97;;
77612;SDS011;66777;52.282;5.960;2023-08-01T13:22:09;625.83;;;608.50;;
77612;SDS011;66777;52.282;5.960;2023-08-01T13:24:35;622.30;;;605.03;;
77612;SDS011;66777;52.282;5.960;2023-08-01T13:27:01;625.15;;;607.75;;
77612;SDS011;66777;52.282;5.960;2023-08-01T13:29:27;631.88;;;614.22;;
77612;SDS011;66777;52.282;5.960;2023-08-01T13:31:52;631.58;;;613.85;;
77612;SDS011;66777;52.282;5.960;2023-08-01T13:34:18;617.67;;;600.45;;
77612;SDS011;66777;52.282;5.960;2023-08-01T13:36:44;629.42;;;611.78;;
77612;SDS011;66777;52.282;5.960;2023-08-01T13:39:09;624.65;;;607.33;;
77612;SDS011;66777;52.282;5.960;2023-08-01T13:41:36;630.50;;;612.72;;
77612;SDS011;66777;52.282;5.960;2023-08-01T13:44:02;622.67;;;605.42;;
77612;SDS011;66777;52.282;5.960;2023-08-01T13:46:27;620.53;;;603.13;;
77612;SDS011;66777;52.282;5.960;2023-08-01T13:48:54;621.65;;;604.40;;
77612;SDS011;66777;52.282;5.960;2023-08-01T13:51:21;626.40;;;609.22;;
77612;SDS011;66777;52.282;5.960;2023-08-01T13:53:46;618.25;;;601.25;;
77612;SDS011;66777;52.282;5.960;2023-08-01T13:56:12;615.60;;;598.85;;
77612;SDS011;66777;52.282;5.960;2023-08-01T13:58:38;612.63;;;596.10;;
77612;SDS011;66777;52.282;5.960;2023-08-01T14:01:05;603.67;;;587.50;;
77612;SDS011;66777;52.282;5.960;2023-08-01T14:03:34;610.10;;;593.55;;
77612;SDS011;66777;52.282;5.960;2023-08-01T14:06:07;609.50;;;593.22;;